Bargerville, Illinois
Current Conditions -  °F | °C
As of 1:15 PM on Tuesday 21 Oct 2014 (Local Time) from KM30 Reporting Station
Clear Clear  
Wind Chill: 71°   Ceiling: Unl
Heat Index: 71°   Visibility: 10mi
Dew Point: 46°   Wind: 9mph
Humidity: 41%   Direction: 360°N
Pressure: 30.07"   Gusts: NA
Location:  37.2288°N, 88.7044°W
Report Text: KM30 211815Z AUTO 36008KT 10SM CLR 22/08 A3007 RMK AO2 T02160078
Loading
Personal Weather Stations






























Interactive Weather Map
Tropical Storm Tracking
New forecast layout! Learn more

10-Day Weather Forecast

Advertisements
Track Severe Weather on mobile